sensor_id;sensor_type;location;lat;lon;timestamp;temperature;humidity
14401;DHT22;7285;50.894;5.462;2023-09-19T00:00:19;15.30;99.90
14401;DHT22;7285;50.894;5.462;2023-09-19T00:02:52;15.30;99.90
14401;DHT22;7285;50.894;5.462;2023-09-19T00:05:19;15.30;99.90
14401;DHT22;7285;50.894;5.462;2023-09-19T00:07:50;15.30;99.90
14401;DHT22;7285;50.894;5.462;2023-09-19T00:10:19;15.20;99.90
14401;DHT22;7285;50.894;5.462;2023-09-19T00:12:49;15.20;99.90
14401;DHT22;7285;50.894;5.462;2023-09-19T00:15:17;15.20;99.90
14401;DHT22;7285;50.894;5.462;2023-09-19T00:17:44;15.10;99.90
14401;DHT22;7285;50.894;5.462;2023-09-19T00:20:13;15.10;99.90
14401;DHT22;7285;50.894;5.462;2023-09-19T00:22:44;15.10;99.90
14401;DHT22;7285;50.894;5.462;2023-09-19T00:25:11;15.10;99.90
14401;DHT22;7285;50.894;5.462;2023-09-19T00:27:41;15.10;99.90
14401;DHT22;7285;50.894;5.462;2023-09-19T00:30:13;15.10;99.90
14401;DHT22;7285;50.894;5.462;2023-09-19T00:32:42;15.10;99.90
14401;DHT22;7285;50.894;5.462;2023-09-19T00:35:10;15.10;99.90
14401;DHT22;7285;50.894;5.462;2023-09-19T00:37:37;15.10;99.90
14401;DHT22;7285;50.894;5.462;2023-09-19T00:40:06;15.00;99.90
14401;DHT22;7285;50.894;5.462;2023-09-19T00:42:37;15.00;99.90
14401;DHT22;7285;50.894;5.462;2023-09-19T00:45:06;15.00;99.90
14401;DHT22;7285;50.894;5.462;2023-09-19T00:47:38;15.00;99.90
14401;DHT22;7285;50.894;5.462;2023-09-19T00:50:06;15.00;99.90
14401;DHT22;7285;50.894;5.462;2023-09-19T00:52:36;15.00;99.90
14401;DHT22;7285;50.894;5.462;2023-09-19T00:55:05;15.00;99.90
14401;DHT22;7285;50.894;5.462;2023-09-19T00:57:33;15.00;99.90
14401;DHT22;7285;50.894;5.462;2023-09-19T01:00:02;15.00;99.90
14401;DHT22;7285;50.894;5.462;2023-09-19T01:02:37;15.00;99.90
14401;DHT22;7285;50.894;5.462;2023-09-19T01:05:05;15.00;99.90
14401;DHT22;7285;50.894;5.462;2023-09-19T01:07:33;15.00;99.90
14401;DHT22;7285;50.894;5.462;2023-09-19T01:10:00;15.10;99.90
14401;DHT22;7285;50.894;5.462;2023-09-19T01:12:33;15.00;99.90
14401;DHT22;7285;50.894;5.462;2023-09-19T01:15:14;15.00;99.90
14401;DHT22;7285;50.894;5.462;2023-09-19T01:17:48;15.00;99.90
14401;DHT22;7285;50.894;5.462;2023-09-19T01:20:25;15.00;99.90
14401;DHT22;7285;50.894;5.462;2023-09-19T01:23:05;15.00;99.90
14401;DHT22;7285;50.894;5.462;2023-09-19T01:26:18;15.00;99.90
14401;DHT22;7285;50.894;5.462;2023-09-19T01:28:53;15.00;99.90
14401;DHT22;7285;50.894;5.462;2023-09-19T01:31:24;15.00;99.90
14401;DHT22;7285;50.894;5.462;2023-09-19T01:33:56;15.00;99.90
14401;DHT22;7285;50.894;5.462;2023-09-19T01:36:31;15.00;99.90
14401;DHT22;7285;50.894;5.462;2023-09-19T01:39:00;15.00;99.90
14401;DHT22;7285;50.894;5.462;2023-09-19T01:41:54;15.00;99.90
14401;DHT22;7285;50.894;5.462;2023-09-19T01:44:30;14.90;99.90
14401;DHT22;7285;50.894;5.462;2023-09-19T01:47:11;14.90;99.90
14401;DHT22;7285;50.894;5.462;2023-09-19T01:49:44;14.90;99.90
14401;DHT22;7285;50.894;5.462;2023-09-19T01:52:20;14.90;99.90
14401;DHT22;7285;50.894;5.462;2023-09-19T01:54:51;14.90;99.90
14401;DHT22;7285;50.894;5.462;2023-09-19T01:57:26;14.80;99.90
14401;DHT22;7285;50.894;5.462;2023-09-19T02:00:00;14.90;99.90
14401;DHT22;7285;50.894;5.462;2023-09-19T02:05:01;14.80;99.90
14401;DHT22;7285;50.894;5.462;2023-09-19T02:07:30;14.80;99.90
14401;DHT22;7285;50.894;5.462;2023-09-19T02:09:58;14.70;99.90
14401;DHT22;7285;50.894;5.462;2023-09-19T02:12:25;14.80;99.90
14401;DHT22;7285;50.894;5.462;2023-09-19T02:14:53;14.70;99.90
14401;DHT22;7285;50.894;5.462;2023-09-19T02:17:20;14.70;99.90
14401;DHT22;7285;50.894;5.462;2023-09-19T02:19:48;14.70;99.90
14401;DHT22;7285;50.894;5.462;2023-09-19T02:22:15;14.70;99.90
14401;DHT22;7285;50.894;5.462;2023-09-19T02:24:42;14.60;99.90
14401;DHT22;7285;50.894;5.462;2023-09-19T02:27:09;14.60;99.90
14401;DHT22;7285;50.894;5.462;2023-09-19T02:29:38;14.60;99.90
14401;DHT22;7285;50.894;5.462;2023-09-19T02:32:05;14.60;99.90
14401;DHT22;7285;50.894;5.462;2023-09-19T02:34:32;14.60;99.90
14401;DHT22;7285;50.894;5.462;2023-09-19T02:37:03;14.50;99.90
14401;DHT22;7285;50.894;5.462;2023-09-19T02:39:31;14.50;99.90
14401;DHT22;7285;50.894;5.462;2023-09-19T02:41:59;14.50;99.90
14401;DHT22;7285;50.894;5.462;2023-09-19T02:44:26;14.50;99.90
14401;DHT22;7285;50.894;5.462;2023-09-19T02:46:54;14.40;99.90
14401;DHT22;7285;50.894;5.462;2023-09-19T02:49:23;14.40;99.90
14401;DHT22;7285;50.894;5.462;2023-09-19T02:51:51;14.40;99.90
14401;DHT22;7285;50.894;5.462;2023-09-19T02:54:19;14.40;99.90
14401;DHT22;7285;50.894;5.462;2023-09-19T02:56:47;14.40;99.90
14401;DHT22;7285;50.894;5.462;2023-09-19T02:59:15;14.40;99.90
14401;DHT22;7285;50.894;5.462;2023-09-19T03:01:43;14.50;99.90
14401;DHT22;7285;50.894;5.462;2023-09-19T03:04:12;14.40;99.90
14401;DHT22;7285;50.894;5.462;2023-09-19T03:06:40;14.50;99.90
14401;DHT22;7285;50.894;5.462;2023-09-19T03:09:07;14.40;99.90
14401;DHT22;7285;50.894;5.462;2023-09-19T03:11:41;14.40;99.90
14401;DHT22;7285;50.894;5.462;2023-09-19T03:14:10;14.40;99.90
14401;DHT22;7285;50.894;5.462;2023-09-19T03:16:38;14.40;99.90
14401;DHT22;7285;50.894;5.462;2023-09-19T03:19:05;14.40;99.90
14401;DHT22;7285;50.894;5.462;2023-09-19T03:21:33;14.40;99.90
14401;DHT22;7285;50.894;5.462;2023-09-19T03:24:01;14.40;99.90
14401;DHT22;7285;50.894;5.462;2023-09-19T03:26:29;14.30;99.90
14401;DHT22;7285;50.894;5.462;2023-09-19T03:28:57;14.30;99.90
14401;DHT22;7285;50.894;5.462;2023-09-19T03:31:24;14.30;99.90
14401;DHT22;7285;50.894;5.462;2023-09-19T03:33:53;14.30;99.90
14401;DHT22;7285;50.894;5.462;2023-09-19T03:36:20;14.30;99.90
14401;DHT22;7285;50.894;5.462;2023-09-19T03:38:47;14.30;99.90
14401;DHT22;7285;50.894;5.462;2023-09-19T03:41:14;14.30;99.90
14401;DHT22;7285;50.894;5.462;2023-09-19T03:43:43;14.30;99.90
14401;DHT22;7285;50.894;5.462;2023-09-19T03:46:11;14.30;99.90
14401;DHT22;7285;50.894;5.462;2023-09-19T03:48:38;14.30;99.90
14401;DHT22;7285;50.894;5.462;2023-09-19T03:51:05;14.30;99.90
14401;DHT22;7285;50.894;5.462;2023-09-19T03:53:32;14.30;99.90
14401;DHT22;7285;50.894;5.462;2023-09-19T03:56:00;14.30;99.90
14401;DHT22;7285;50.894;5.462;2023-09-19T03:58:27;14.30;99.90
14401;DHT22;7285;50.894;5.462;2023-09-19T04:00:55;14.30;99.90
14401;DHT22;7285;50.894;5.462;2023-09-19T04:03:24;14.30;99.90
14401;DHT22;7285;50.894;5.462;2023-09-19T04:06:00;14.40;99.90
14401;DHT22;7285;50.894;5.462;2023-09-19T04:08:28;14.40;99.90
14401;DHT22;7285;50.894;5.462;2023-09-19T04:10:55;14.40;99.90
14401;DHT22;7285;50.894;5.462;2023-09-19T04:13:22;14.40;99.90
14401;DHT22;7285;50.894;5.462;2023-09-19T04:15:51;14.50;99.90
14401;DHT22;7285;50.894;5.462;2023-09-19T04:18:19;14.50;99.90
14401;DHT22;7285;50.894;5.462;2023-09-19T04:20:49;14.50;99.90
14401;DHT22;7285;50.894;5.462;2023-09-19T04:23:16;14.50;99.90
14401;DHT22;7285;50.894;5.462;2023-09-19T04:25:44;14.60;99.90
14401;DHT22;7285;50.894;5.462;2023-09-19T04:28:11;14.60;99.90
14401;DHT22;7285;50.894;5.462;2023-09-19T04:30:38;14.60;99.90
14401;DHT22;7285;50.894;5.462;2023-09-19T04:33:07;14.60;99.90
14401;DHT22;7285;50.894;5.462;2023-09-19T04:35:34;14.50;99.90
14401;DHT22;7285;50.894;5.462;2023-09-19T04:38:04;14.50;99.90
14401;DHT22;7285;50.894;5.462;2023-09-19T04:40:32;14.50;99.90
14401;DHT22;7285;50.894;5.462;2023-09-19T04:43:00;14.50;99.90
14401;DHT22;7285;50.894;5.462;2023-09-19T04:45:28;14.50;99.90
14401;DHT22;7285;50.894;5.462;2023-09-19T04:47:55;14.50;99.90
14401;DHT22;7285;50.894;5.462;2023-09-19T04:50:22;14.50;99.90
14401;DHT22;7285;50.894;5.462;2023-09-19T04:52:53;14.50;99.90
14401;DHT22;7285;50.894;5.462;2023-09-19T04:55:22;14.50;99.90
14401;DHT22;7285;50.894;5.462;2023-09-19T04:57:50;14.40;99.90
14401;DHT22;7285;50.894;5.462;2023-09-19T05:00:19;14.40;99.90
14401;DHT22;7285;50.894;5.462;2023-09-19T05:02:50;14.30;99.90
14401;DHT22;7285;50.894;5.462;2023-09-19T05:05:17;14.30;99.90
14401;DHT22;7285;50.894;5.462;2023-09-19T05:07:45;14.20;99.90
14401;DHT22;7285;50.894;5.462;2023-09-19T05:10:13;14.20;99.90
14401;DHT22;7285;50.894;5.462;2023-09-19T05:12:41;14.20;99.90
14401;DHT22;7285;50.894;5.462;2023-09-19T05:15:10;14.20;99.90
14401;DHT22;7285;50.894;5.462;2023-09-19T05:17:38;14.10;99.90
14401;DHT22;7285;50.894;5.462;2023-09-19T05:20:06;14.10;99.90
14401;DHT22;7285;50.894;5.462;2023-09-19T05:22:48;14.00;99.90
14401;DHT22;7285;50.894;5.462;2023-09-19T05:25:16;14.00;99.90
14401;DHT22;7285;50.894;5.462;2023-09-19T05:27:45;14.00;99.90
14401;DHT22;7285;50.894;5.462;2023-09-19T05:30:13;14.00;99.90
14401;DHT22;7285;50.894;5.462;2023-09-19T05:32:42;14.00;99.90
14401;DHT22;7285;50.894;5.462;2023-09-19T05:35:10;14.00;99.90
14401;DHT22;7285;50.894;5.462;2023-09-19T05:37:38;14.00;99.90
14401;DHT22;7285;50.894;5.462;2023-09-19T05:40:08;14.00;99.90
14401;DHT22;7285;50.894;5.462;2023-09-19T05:42:36;14.00;99.90
14401;DHT22;7285;50.894;5.462;2023-09-19T05:45:09;14.00;99.90
14401;DHT22;7285;50.894;5.462;2023-09-19T05:47:37;14.00;99.90
14401;DHT22;7285;50.894;5.462;2023-09-19T05:50:06;14.00;99.90
14401;DHT22;7285;50.894;5.462;2023-09-19T05:52:34;14.00;99.90
14401;DHT22;7285;50.894;5.462;2023-09-19T05:55:03;14.00;99.90
14401;DHT22;7285;50.894;5.462;2023-09-19T05:57:31;14.00;99.90
14401;DHT22;7285;50.894;5.462;2023-09-19T05:59:58;14.00;99.90
14401;DHT22;7285;50.894;5.462;2023-09-19T06:02:26;14.10;99.90
14401;DHT22;7285;50.894;5.462;2023-09-19T06:04:55;14.10;99.90
14401;DHT22;7285;50.894;5.462;2023-09-19T06:07:23;14.10;99.90
14401;DHT22;7285;50.894;5.462;2023-09-19T06:09:51;14.10;99.90
14401;DHT22;7285;50.894;5.462;2023-09-19T06:12:20;14.10;99.90
14401;DHT22;7285;50.894;5.462;2023-09-19T06:14:48;14.10;99.90
14401;DHT22;7285;50.894;5.462;2023-09-19T06:17:15;14.20;99.90
14401;DHT22;7285;50.894;5.462;2023-09-19T06:19:44;14.20;99.90
14401;DHT22;7285;50.894;5.462;2023-09-19T06:22:15;14.30;99.90
14401;DHT22;7285;50.894;5.462;2023-09-19T06:24:43;14.30;99.90
14401;DHT22;7285;50.894;5.462;2023-09-19T06:27:11;14.30;99.90
14401;DHT22;7285;50.894;5.462;2023-09-19T06:29:39;14.30;99.90
14401;DHT22;7285;50.894;5.462;2023-09-19T06:32:07;14.40;99.90
14401;DHT22;7285;50.894;5.462;2023-09-19T06:34:35;14.40;99.90
14401;DHT22;7285;50.894;5.462;2023-09-19T06:37:05;14.40;99.90
14401;DHT22;7285;50.894;5.462;2023-09-19T06:39:32;14.50;99.90
14401;DHT22;7285;50.894;5.462;2023-09-19T06:42:00;14.50;99.90
14401;DHT22;7285;50.894;5.462;2023-09-19T06:44:27;14.50;99.90
14401;DHT22;7285;50.894;5.462;2023-09-19T06:46:56;14.60;99.90
14401;DHT22;7285;50.894;5.462;2023-09-19T06:49:23;14.60;99.90
14401;DHT22;7285;50.894;5.462;2023-09-19T06:51:54;14.60;99.90
14401;DHT22;7285;50.894;5.462;2023-09-19T06:54:22;14.70;99.90
14401;DHT22;7285;50.894;5.462;2023-09-19T06:56:49;14.70;99.90
14401;DHT22;7285;50.894;5.462;2023-09-19T06:59:17;14.80;99.90
14401;DHT22;7285;50.894;5.462;2023-09-19T07:01:44;14.80;99.90
14401;DHT22;7285;50.894;5.462;2023-09-19T07:04:12;14.90;99.90
14401;DHT22;7285;50.894;5.462;2023-09-19T07:06:40;15.00;99.90
14401;DHT22;7285;50.894;5.462;2023-09-19T07:09:07;15.10;99.90
14401;DHT22;7285;50.894;5.462;2023-09-19T07:11:37;15.20;99.90
14401;DHT22;7285;50.894;5.462;2023-09-19T07:14:04;15.20;99.90
14401;DHT22;7285;50.894;5.462;2023-09-19T07:16:32;15.30;99.90
14401;DHT22;7285;50.894;5.462;2023-09-19T07:18:58;15.40;99.90
14401;DHT22;7285;50.894;5.462;2023-09-19T07:21:28;15.50;99.90
14401;DHT22;7285;50.894;5.462;2023-09-19T07:23:55;15.50;99.90
14401;DHT22;7285;50.894;5.462;2023-09-19T07:26:22;15.50;99.90
14401;DHT22;7285;50.894;5.462;2023-09-19T07:28:50;15.50;99.90
14401;DHT22;7285;50.894;5.462;2023-09-19T07:31:18;15.60;99.90
14401;DHT22;7285;50.894;5.462;2023-09-19T07:33:45;15.60;99.90
14401;DHT22;7285;50.894;5.462;2023-09-19T07:36:12;15.60;99.90
14401;DHT22;7285;50.894;5.462;2023-09-19T07:38:40;15.70;99.90
14401;DHT22;7285;50.894;5.462;2023-09-19T07:41:09;15.80;99.90
14401;DHT22;7285;50.894;5.462;2023-09-19T07:43:36;15.80;99.90
14401;DHT22;7285;50.894;5.462;2023-09-19T07:46:07;15.90;99.90
14401;DHT22;7285;50.894;5.462;2023-09-19T07:48:35;15.90;99.90
14401;DHT22;7285;50.894;5.462;2023-09-19T07:51:04;15.90;99.90
14401;DHT22;7285;50.894;5.462;2023-09-19T07:53:31;16.00;99.90
14401;DHT22;7285;50.894;5.462;2023-09-19T07:56:05;16.10;99.90
14401;DHT22;7285;50.894;5.462;2023-09-19T07:58:33;16.10;99.90
14401;DHT22;7285;50.894;5.462;2023-09-19T08:01:06;16.20;99.90
14401;DHT22;7285;50.894;5.462;2023-09-19T08:03:33;16.30;99.90
14401;DHT22;7285;50.894;5.462;2023-09-19T08:06:06;16.40;99.90
14401;DHT22;7285;50.894;5.462;2023-09-19T08:08:34;16.50;99.90
14401;DHT22;7285;50.894;5.462;2023-09-19T08:11:03;16.60;99.90
14401;DHT22;7285;50.894;5.462;2023-09-19T08:13:36;16.70;99.90
14401;DHT22;7285;50.894;5.462;2023-09-19T08:16:09;16.80;99.90
14401;DHT22;7285;50.894;5.462;2023-09-19T08:18:36;16.80;99.90
14401;DHT22;7285;50.894;5.462;2023-09-19T08:21:05;16.80;99.90
14401;DHT22;7285;50.894;5.462;2023-09-19T08:23:33;16.90;99.90
14401;DHT22;7285;50.894;5.462;2023-09-19T08:26:02;16.90;99.90
14401;DHT22;7285;50.894;5.462;2023-09-19T08:28:33;16.90;99.90
14401;DHT22;7285;50.894;5.462;2023-09-19T08:31:02;17.00;99.90
14401;DHT22;7285;50.894;5.462;2023-09-19T08:33:34;17.00;99.90
14401;DHT22;7285;50.894;5.462;2023-09-19T08:36:02;17.20;99.90
14401;DHT22;7285;50.894;5.462;2023-09-19T08:38:31;17.30;99.90
14401;DHT22;7285;50.894;5.462;2023-09-19T08:40:59;17.40;99.90
14401;DHT22;7285;50.894;5.462;2023-09-19T08:43:26;17.50;99.90
14401;DHT22;7285;50.894;5.462;2023-09-19T08:45:58;17.60;99.90
14401;DHT22;7285;50.894;5.462;2023-09-19T08:48:29;17.60;99.90
14401;DHT22;7285;50.894;5.462;2023-09-19T08:51:02;17.50;99.90
14401;DHT22;7285;50.894;5.462;2023-09-19T08:53:36;17.60;99.90
14401;DHT22;7285;50.894;5.462;2023-09-19T08:56:09;17.70;99.90
14401;DHT22;7285;50.894;5.462;2023-09-19T08:58:43;17.70;99.90
14401;DHT22;7285;50.894;5.462;2023-09-19T09:01:14;17.80;99.90
14401;DHT22;7285;50.894;5.462;2023-09-19T09:03:43;17.80;99.90
14401;DHT22;7285;50.894;5.462;2023-09-19T09:06:16;17.90;99.90
14401;DHT22;7285;50.894;5.462;2023-09-19T09:08:44;18.00;99.90
14401;DHT22;7285;50.894;5.462;2023-09-19T09:11:11;18.00;99.90
14401;DHT22;7285;50.894;5.462;2023-09-19T09:13:40;18.10;99.90
14401;DHT22;7285;50.894;5.462;2023-09-19T09:16:09;18.30;99.90
14401;DHT22;7285;50.894;5.462;2023-09-19T09:18:36;18.30;99.90
14401;DHT22;7285;50.894;5.462;2023-09-19T09:21:04;18.30;99.90
14401;DHT22;7285;50.894;5.462;2023-09-19T09:23:33;18.50;99.90
14401;DHT22;7285;50.894;5.462;2023-09-19T09:26:01;18.60;99.90
14401;DHT22;7285;50.894;5.462;2023-09-19T09:28:31;18.60;99.90
14401;DHT22;7285;50.894;5.462;2023-09-19T09:30:59;18.50;99.90
14401;DHT22;7285;50.894;5.462;2023-09-19T09:33:28;18.50;99.90
14401;DHT22;7285;50.894;5.462;2023-09-19T09:35:58;18.70;99.90
14401;DHT22;7285;50.894;5.462;2023-09-19T09:38:29;18.80;99.90
14401;DHT22;7285;50.894;5.462;2023-09-19T09:41:00;18.90;99.90
14401;DHT22;7285;50.894;5.462;2023-09-19T09:43:34;19.00;99.90
14401;DHT22;7285;50.894;5.462;2023-09-19T09:46:13;19.10;99.90
14401;DHT22;7285;50.894;5.462;2023-09-19T09:48:59;19.20;99.90
14401;DHT22;7285;50.894;5.462;2023-09-19T09:52:00;19.00;99.90
14401;DHT22;7285;50.894;5.462;2023-09-19T09:54:31;19.20;99.90
14401;DHT22;7285;50.894;5.462;2023-09-19T09:57:05;19.20;99.90
14401;DHT22;7285;50.894;5.462;2023-09-19T09:59:54;19.30;99.90
14401;DHT22;7285;50.894;5.462;2023-09-19T10:02:28;19.30;99.90
14401;DHT22;7285;50.894;5.462;2023-09-19T10:04:59;19.20;99.90
14401;DHT22;7285;50.894;5.462;2023-09-19T10:07:35;19.30;99.90
14401;DHT22;7285;50.894;5.462;2023-09-19T10:10:05;19.10;99.90
14401;DHT22;7285;50.894;5.462;2023-09-19T10:12:48;19.20;99.90
14401;DHT22;7285;50.894;5.462;2023-09-19T10:15:17;19.20;99.90
14401;DHT22;7285;50.894;5.462;2023-09-19T10:17:46;19.00;99.90
14401;DHT22;7285;50.894;5.462;2023-09-19T10:20:14;19.10;99.90
14401;DHT22;7285;50.894;5.462;2023-09-19T10:23:03;19.20;99.90
14401;DHT22;7285;50.894;5.462;2023-09-19T10:25:37;19.30;99.90
14401;DHT22;7285;50.894;5.462;2023-09-19T10:28:08;19.30;99.90
14401;DHT22;7285;50.894;5.462;2023-09-19T10:30:38;19.30;99.90
14401;DHT22;7285;50.894;5.462;2023-09-19T10:33:09;19.20;99.90
14401;DHT22;7285;50.894;5.462;2023-09-19T10:35:39;19.20;99.90
14401;DHT22;7285;50.894;5.462;2023-09-19T10:38:07;19.30;99.90
14401;DHT22;7285;50.894;5.462;2023-09-19T10:40:37;19.40;99.90
14401;DHT22;7285;50.894;5.462;2023-09-19T10:43:12;19.50;99.90
14401;DHT22;7285;50.894;5.462;2023-09-19T10:45:40;19.60;99.90
14401;DHT22;7285;50.894;5.462;2023-09-19T10:48:07;19.60;99.90
14401;DHT22;7285;50.894;5.462;2023-09-19T10:50:41;19.60;99.90
14401;DHT22;7285;50.894;5.462;2023-09-19T10:53:12;19.80;99.90
14401;DHT22;7285;50.894;5.462;2023-09-19T10:55:41;20.00;99.90
14401;DHT22;7285;50.894;5.462;2023-09-19T10:58:27;20.40;99.90
14401;DHT22;7285;50.894;5.462;2023-09-19T11:00:56;20.60;99.90
14401;DHT22;7285;50.894;5.462;2023-09-19T11:03:27;20.80;99.90
14401;DHT22;7285;50.894;5.462;2023-09-19T11:06:07;21.00;99.90
14401;DHT22;7285;50.894;5.462;2023-09-19T11:08:59;21.20;99.90
14401;DHT22;7285;50.894;5.462;2023-09-19T11:11:49;21.20;99.90
14401;DHT22;7285;50.894;5.462;2023-09-19T11:14:37;21.00;99.90
14401;DHT22;7285;50.894;5.462;2023-09-19T11:20:21;21.50;99.90
14401;DHT22;7285;50.894;5.462;2023-09-19T11:23:21;21.80;99.90
14401;DHT22;7285;50.894;5.462;2023-09-19T11:25:53;21.70;99.90
14401;DHT22;7285;50.894;5.462;2023-09-19T11:28:31;22.00;99.90
14401;DHT22;7285;50.894;5.462;2023-09-19T11:34:44;22.10;99.90
14401;DHT22;7285;50.894;5.462;2023-09-19T11:40:33;22.20;99.90
14401;DHT22;7285;50.894;5.462;2023-09-19T11:43:33;22.20;99.90
14401;DHT22;7285;50.894;5.462;2023-09-19T11:46:07;22.00;99.90
14401;DHT22;7285;50.894;5.462;2023-09-19T11:48:41;21.90;99.90
14401;DHT22;7285;50.894;5.462;2023-09-19T11:51:13;21.80;99.90
14401;DHT22;7285;50.894;5.462;2023-09-19T11:53:46;21.60;99.90
14401;DHT22;7285;50.894;5.462;2023-09-19T11:56:16;21.60;99.90
14401;DHT22;7285;50.894;5.462;2023-09-19T11:58:45;21.80;99.90
14401;DHT22;7285;50.894;5.462;2023-09-19T12:01:22;21.80;99.90
14401;DHT22;7285;50.894;5.462;2023-09-19T12:03:53;22.00;99.90
14401;DHT22;7285;50.894;5.462;2023-09-19T12:06:25;22.20;99.90
14401;DHT22;7285;50.894;5.462;2023-09-19T12:08:54;21.90;99.90
14401;DHT22;7285;50.894;5.462;2023-09-19T12:11:29;22.20;99.90
14401;DHT22;7285;50.894;5.462;2023-09-19T12:13:59;22.20;99.90
14401;DHT22;7285;50.894;5.462;2023-09-19T12:16:32;22.30;99.90
14401;DHT22;7285;50.894;5.462;2023-09-19T12:19:17;22.50;99.90
14401;DHT22;7285;50.894;5.462;2023-09-19T12:21:54;22.50;99.90
14401;DHT22;7285;50.894;5.462;2023-09-19T12:24:24;22.30;99.90
14401;DHT22;7285;50.894;5.462;2023-09-19T12:27:00;22.10;99.90
14401;DHT22;7285;50.894;5.462;2023-09-19T12:29:32;21.90;99.90
14401;DHT22;7285;50.894;5.462;2023-09-19T12:32:10;21.80;99.90
14401;DHT22;7285;50.894;5.462;2023-09-19T12:34:37;21.50;99.90
14401;DHT22;7285;50.894;5.462;2023-09-19T12:37:10;21.40;99.90
14401;DHT22;7285;50.894;5.462;2023-09-19T12:39:47;21.40;99.90
14401;DHT22;7285;50.894;5.462;2023-09-19T12:42:17;21.40;99.90
14401;DHT22;7285;50.894;5.462;2023-09-19T12:44:49;21.20;99.90
14401;DHT22;7285;50.894;5.462;2023-09-19T12:47:23;21.10;99.90
14401;DHT22;7285;50.894;5.462;2023-09-19T12:50:10;21.10;99.90
14401;DHT22;7285;50.894;5.462;2023-09-19T12:52:55;21.20;99.90
14401;DHT22;7285;50.894;5.462;2023-09-19T12:55:27;21.20;99.90
14401;DHT22;7285;50.894;5.462;2023-09-19T12:58:08;21.00;99.90
14401;DHT22;7285;50.894;5.462;2023-09-19T13:00:39;21.00;99.90
14401;DHT22;7285;50.894;5.462;2023-09-19T13:03:13;20.90;99.90
14401;DHT22;7285;50.894;5.462;2023-09-19T13:05:52;20.70;99.90
14401;DHT22;7285;50.894;5.462;2023-09-19T13:08:24;20.50;99.90
14401;DHT22;7285;50.894;5.462;2023-09-19T13:11:16;20.30;99.90
14401;DHT22;7285;50.894;5.462;2023-09-19T13:13:47;20.30;99.90
14401;DHT22;7285;50.894;5.462;2023-09-19T13:16:16;20.40;99.90
14401;DHT22;7285;50.894;5.462;2023-09-19T13:18:51;20.60;99.90
14401;DHT22;7285;50.894;5.462;2023-09-19T13:21:29;20.40;99.90
14401;DHT22;7285;50.894;5.462;2023-09-19T13:24:19;20.30;99.90
14401;DHT22;7285;50.894;5.462;2023-09-19T13:26:46;20.00;99.90
14401;DHT22;7285;50.894;5.462;2023-09-19T13:29:13;19.90;99.90
14401;DHT22;7285;50.894;5.462;2023-09-19T13:31:46;19.80;99.90
14401;DHT22;7285;50.894;5.462;2023-09-19T13:34:14;20.00;99.90
14401;DHT22;7285;50.894;5.462;2023-09-19T13:36:44;20.00;99.90
14401;DHT22;7285;50.894;5.462;2023-09-19T13:39:12;19.90;99.90
14401;DHT22;7285;50.894;5.462;2023-09-19T13:41:42;19.90;99.90
14401;DHT22;7285;50.894;5.462;2023-09-19T13:44:10;20.00;99.90
14401;DHT22;7285;50.894;5.462;2023-09-19T13:46:38;20.00;99.90
14401;DHT22;7285;50.894;5.462;2023-09-19T13:49:06;19.90;99.90
14401;DHT22;7285;50.894;5.462;2023-09-19T13:51:35;20.00;99.90
14401;DHT22;7285;50.894;5.462;2023-09-19T13:54:02;20.00;99.90
14401;DHT22;7285;50.894;5.462;2023-09-19T13:56:29;20.10;99.90
14401;DHT22;7285;50.894;5.462;2023-09-19T13:58:59;20.00;99.90
14401;DHT22;7285;50.894;5.462;2023-09-19T14:01:26;20.20;99.90
14401;DHT22;7285;50.894;5.462;2023-09-19T14:03:53;20.60;99.90
14401;DHT22;7285;50.894;5.462;2023-09-19T14:06:22;21.00;99.90
14401;DHT22;7285;50.894;5.462;2023-09-19T14:08:51;21.10;99.90
14401;DHT22;7285;50.894;5.462;2023-09-19T14:11:18;20.90;99.90
14401;DHT22;7285;50.894;5.462;2023-09-19T14:13:45;20.80;99.90
14401;DHT22;7285;50.894;5.462;2023-09-19T14:16:15;20.70;99.90
14401;DHT22;7285;50.894;5.462;2023-09-19T14:18:44;20.60;99.90
14401;DHT22;7285;50.894;5.462;2023-09-19T14:21:11;20.50;99.90
14401;DHT22;7285;50.894;5.462;2023-09-19T14:23:38;20.30;99.90
14401;DHT22;7285;50.894;5.462;2023-09-19T14:26:06;20.20;99.90
14401;DHT22;7285;50.894;5.462;2023-09-19T14:28:35;20.20;99.90
14401;DHT22;7285;50.894;5.462;2023-09-19T14:31:06;20.10;99.90
14401;DHT22;7285;50.894;5.462;2023-09-19T14:33:33;19.90;99.90
14401;DHT22;7285;50.894;5.462;2023-09-19T14:36:02;19.90;99.90
14401;DHT22;7285;50.894;5.462;2023-09-19T14:38:31;19.70;99.90
14401;DHT22;7285;50.894;5.462;2023-09-19T14:41:00;19.60;99.90
14401;DHT22;7285;50.894;5.462;2023-09-19T14:43:29;19.60;99.90
14401;DHT22;7285;50.894;5.462;2023-09-19T14:45:56;19.60;99.90
14401;DHT22;7285;50.894;5.462;2023-09-19T14:48:24;19.50;99.90
14401;DHT22;7285;50.894;5.462;2023-09-19T14:50:51;19.60;99.90
14401;DHT22;7285;50.894;5.462;2023-09-19T14:53:19;19.60;99.90
14401;DHT22;7285;50.894;5.462;2023-09-19T14:55:46;19.70;99.90
14401;DHT22;7285;50.894;5.462;2023-09-19T14:58:17;19.70;99.90
14401;DHT22;7285;50.894;5.462;2023-09-19T15:00:47;19.70;99.90
14401;DHT22;7285;50.894;5.462;2023-09-19T15:03:14;19.70;99.90
14401;DHT22;7285;50.894;5.462;2023-09-19T15:05:41;19.70;99.90
14401;DHT22;7285;50.894;5.462;2023-09-19T15:08:09;19.70;99.90
14401;DHT22;7285;50.894;5.462;2023-09-19T15:10:36;19.80;99.90
14401;DHT22;7285;50.894;5.462;2023-09-19T15:13:03;19.80;99.90
14401;DHT22;7285;50.894;5.462;2023-09-19T15:15:31;19.70;99.90
14401;DHT22;7285;50.894;5.462;2023-09-19T15:18:00;19.70;99.90
14401;DHT22;7285;50.894;5.462;2023-09-19T15:20:27;19.60;99.90
14401;DHT22;7285;50.894;5.462;2023-09-19T15:22:54;19.60;99.90
14401;DHT22;7285;50.894;5.462;2023-09-19T15:25:21;19.60;99.90
14401;DHT22;7285;50.894;5.462;2023-09-19T15:27:54;19.50;99.90
14401;DHT22;7285;50.894;5.462;2023-09-19T15:30:23;19.50;99.90
14401;DHT22;7285;50.894;5.462;2023-09-19T15:32:51;19.50;99.90
14401;DHT22;7285;50.894;5.462;2023-09-19T15:35:21;19.40;99.90
14401;DHT22;7285;50.894;5.462;2023-09-19T15:37:48;19.50;99.90
14401;DHT22;7285;50.894;5.462;2023-09-19T15:40:15;19.50;99.90
14401;DHT22;7285;50.894;5.462;2023-09-19T15:42:42;19.50;99.90
14401;DHT22;7285;50.894;5.462;2023-09-19T15:45:09;19.50;99.90
14401;DHT22;7285;50.894;5.462;2023-09-19T15:47:37;19.50;99.90
14401;DHT22;7285;50.894;5.462;2023-09-19T15:50:04;19.50;99.90
14401;DHT22;7285;50.894;5.462;2023-09-19T15:52:34;19.50;99.90
14401;DHT22;7285;50.894;5.462;2023-09-19T15:55:03;19.50;99.90
14401;DHT22;7285;50.894;5.462;2023-09-19T15:57:30;19.40;99.90
14401;DHT22;7285;50.894;5.462;2023-09-19T15:59:56;19.40;99.90
14401;DHT22;7285;50.894;5.462;2023-09-19T16:02:24;19.30;99.90
14401;DHT22;7285;50.894;5.462;2023-09-19T16:04:52;19.30;99.90
14401;DHT22;7285;50.894;5.462;2023-09-19T16:07:21;19.30;99.90
14401;DHT22;7285;50.894;5.462;2023-09-19T16:09:49;19.20;99.90
14401;DHT22;7285;50.894;5.462;2023-09-19T16:12:16;19.10;99.90
14401;DHT22;7285;50.894;5.462;2023-09-19T16:14:43;19.10;99.90
14401;DHT22;7285;50.894;5.462;2023-09-19T16:17:10;19.10;99.90